sensor_id;sensor_type;location;lat;lon;timestamp;pressure;altitude;pressure_sealevel;temperature;humidity
11912;BME280;6016;41.928;25.556;2023-05-09T00:00:01;99400.28;;;15.50;80.13
11912;BME280;6016;41.928;25.556;2023-05-09T00:02:29;99340.41;;;15.21;79.84
11912;BME280;6016;41.928;25.556;2023-05-09T00:04:59;99400.94;;;15.60;79.84
11912;BME280;6016;41.928;25.556;2023-05-09T00:07:28;99439.19;;;15.84;79.90
11912;BME280;6016;41.928;25.556;2023-05-09T00:09:56;99371.31;;;15.22;80.08
11912;BME280;6016;41.928;25.556;2023-05-09T00:12:23;99441.19;;;15.82;80.93
11912;BME280;6016;41.928;25.556;2023-05-09T00:14:49;99440.38;;;15.81;80.25
11912;BME280;6016;41.928;25.556;2023-05-09T00:17:18;99400.28;;;15.50;80.72
11912;BME280;6016;41.928;25.556;2023-05-09T00:19:47;99434.19;;;15.72;80.54
11912;BME280;6016;41.928;25.556;2023-05-09T00:22:14;99319.28;;;14.94;81.43
11912;BME280;6016;41.928;25.556;2023-05-09T00:24:41;99375.16;;;15.36;81.50
11912;BME280;6016;41.928;25.556;2023-05-09T00:27:09;99404.09;;;15.55;81.60
11912;BME280;6016;41.928;25.556;2023-05-09T00:29:36;99427.88;;;15.82;81.72
11912;BME280;6016;41.928;25.556;2023-05-09T00:32:03;99438.16;;;15.60;82.40
11912;BME280;6016;41.928;25.556;2023-05-09T00:34:30;99438.50;;;15.65;82.16
11912;BME280;6016;41.928;25.556;2023-05-09T00:36:57;99433.69;;;15.60;81.81
11912;BME280;6016;41.928;25.556;2023-05-09T00:39:24;99438.28;;;15.42;82.90
11912;BME280;6016;41.928;25.556;2023-05-09T00:41:51;99436.97;;;15.54;82.32
11912;BME280;6016;41.928;25.556;2023-05-09T00:44:19;99436.69;;;15.57;82.80
11912;BME280;6016;41.928;25.556;2023-05-09T00:46:46;99429.03;;;15.63;82.01
11912;BME280;6016;41.928;25.556;2023-05-09T00:49:13;99279.84;;;14.65;81.24
11912;BME280;6016;41.928;25.556;2023-05-09T00:51:40;99435.16;;;15.55;81.91
11912;BME280;6016;41.928;25.556;2023-05-09T00:54:07;99429.50;;;15.58;81.67
11912;BME280;6016;41.928;25.556;2023-05-09T00:56:36;98900.47;;;12.26;81.45
11912;BME280;6016;41.928;25.556;2023-05-09T00:59:03;99436.84;;;15.64;81.20
11912;BME280;6016;41.928;25.556;2023-05-09T01:01:32;99420.22;;;15.54;81.68
11912;BME280;6016;41.928;25.556;2023-05-09T01:03:59;99432.50;;;15.55;81.01
11912;BME280;6016;41.928;25.556;2023-05-09T01:06:31;99400.91;;;15.43;81.25
11912;BME280;6016;41.928;25.556;2023-05-09T01:09:07;99453.13;;;15.69;81.34
11912;BME280;6016;41.928;25.556;2023-05-09T01:11:41;99446.66;;;15.72;80.85
11912;BME280;6016;41.928;25.556;2023-05-09T01:14:14;99414.75;;;15.55;80.74
11912;BME280;6016;41.928;25.556;2023-05-09T01:16:47;99445.81;;;15.71;80.67
11912;BME280;6016;41.928;25.556;2023-05-09T01:19:33;99326.72;;;14.82;81.00
11912;BME280;6016;41.928;25.556;2023-05-09T01:22:06;99451.31;;;15.70;81.00
11912;BME280;6016;41.928;25.556;2023-05-09T01:25:01;99443.34;;;15.70;81.14
11912;BME280;6016;41.928;25.556;2023-05-09T01:27:41;99403.59;;;15.52;80.89
11912;BME280;6016;41.928;25.556;2023-05-09T01:30:14;99445.47;;;15.58;81.34
11912;BME280;6016;41.928;25.556;2023-05-09T01:32:42;99451.97;;;15.64;81.39
11912;BME280;6016;41.928;25.556;2023-05-09T01:35:13;99452.44;;;15.59;81.67
11912;BME280;6016;41.928;25.556;2023-05-09T01:37:42;99460.44;;;15.67;81.94
11912;BME280;6016;41.928;25.556;2023-05-09T01:40:13;99449.94;;;15.49;81.33
11912;BME280;6016;41.928;25.556;2023-05-09T01:42:42;99463.44;;;15.72;81.07
11912;BME280;6016;41.928;25.556;2023-05-09T01:45:13;99285.25;;;14.46;82.10
11912;BME280;6016;41.928;25.556;2023-05-09T01:47:41;99453.28;;;15.59;81.08
11912;BME280;6016;41.928;25.556;2023-05-09T01:50:10;99458.09;;;15.56;81.98
11912;BME280;6016;41.928;25.556;2023-05-09T01:52:39;99443.59;;;15.33;81.61
11912;BME280;6016;41.928;25.556;2023-05-09T01:55:09;99323.50;;;14.70;81.76
11912;BME280;6016;41.928;25.556;2023-05-09T01:57:38;99440.13;;;15.41;81.66
11912;BME280;6016;41.928;25.556;2023-05-09T02:00:07;99411.97;;;15.14;82.23
11912;BME280;6016;41.928;25.556;2023-05-09T02:02:36;99447.78;;;15.53;81.29
11912;BME280;6016;41.928;25.556;2023-05-09T02:05:04;99453.59;;;15.48;80.92
11912;BME280;6016;41.928;25.556;2023-05-09T02:07:32;99447.78;;;15.44;80.99
11912;BME280;6016;41.928;25.556;2023-05-09T02:09:59;99453.44;;;15.50;81.21
11912;BME280;6016;41.928;25.556;2023-05-09T02:12:27;99467.88;;;15.47;81.32
11912;BME280;6016;41.928;25.556;2023-05-09T02:14:55;99459.06;;;15.46;82.09
11912;BME280;6016;41.928;25.556;2023-05-09T02:17:21;99391.19;;;15.01;81.42
11912;BME280;6016;41.928;25.556;2023-05-09T02:19:50;99423.81;;;15.28;81.13
11912;BME280;6016;41.928;25.556;2023-05-09T02:22:16;99457.94;;;15.57;81.36
11912;BME280;6016;41.928;25.556;2023-05-09T02:24:43;99460.44;;;15.67;80.92
11912;BME280;6016;41.928;25.556;2023-05-09T02:27:10;99322.66;;;14.70;80.73
11912;BME280;6016;41.928;25.556;2023-05-09T02:29:41;99455.09;;;15.51;80.66
11912;BME280;6016;41.928;25.556;2023-05-09T02:32:10;99466.38;;;15.36;81.23
11912;BME280;6016;41.928;25.556;2023-05-09T02:34:38;99399.31;;;14.99;81.17
11912;BME280;6016;41.928;25.556;2023-05-09T02:37:07;99390.69;;;14.97;81.42
11912;BME280;6016;41.928;25.556;2023-05-09T02:39:34;99304.13;;;14.35;81.68
11912;BME280;6016;41.928;25.556;2023-05-09T02:42:14;99289.66;;;14.29;81.65
11912;BME280;6016;41.928;25.556;2023-05-09T02:44:41;99383.00;;;14.86;81.26
11912;BME280;6016;41.928;25.556;2023-05-09T02:47:08;99474.19;;;15.46;81.40
11912;BME280;6016;41.928;25.556;2023-05-09T02:49:35;99409.59;;;14.94;81.37
11912;BME280;6016;41.928;25.556;2023-05-09T02:52:01;99418.91;;;14.98;81.05
11912;BME280;6016;41.928;25.556;2023-05-09T02:54:30;99482.50;;;15.51;81.31
11912;BME280;6016;41.928;25.556;2023-05-09T02:56:57;99307.44;;;14.29;80.39
11912;BME280;6016;41.928;25.556;2023-05-09T02:59:25;99479.84;;;15.51;81.16
11912;BME280;6016;41.928;25.556;2023-05-09T03:01:52;99479.19;;;15.49;80.95
11912;BME280;6016;41.928;25.556;2023-05-09T03:04:18;99488.69;;;15.52;81.26
11912;BME280;6016;41.928;25.556;2023-05-09T03:06:45;99487.28;;;15.31;82.05
11912;BME280;6016;41.928;25.556;2023-05-09T03:09:12;99470.25;;;15.07;81.50
11912;BME280;6016;41.928;25.556;2023-05-09T03:11:41;99457.88;;;14.89;81.48
11912;BME280;6016;41.928;25.556;2023-05-09T03:14:08;99493.44;;;14.97;81.92
11912;BME280;6016;41.928;25.556;2023-05-09T03:16:35;99485.56;;;15.13;81.92
11912;BME280;6016;41.928;25.556;2023-05-09T03:19:02;99516.97;;;15.26;81.27
11912;BME280;6016;41.928;25.556;2023-05-09T03:21:29;99497.25;;;14.94;82.30
11912;BME280;6016;41.928;25.556;2023-05-09T03:23:57;99515.31;;;15.17;81.33
11912;BME280;6016;41.928;25.556;2023-05-09T03:26:24;99534.09;;;15.24;81.18
11912;BME280;6016;41.928;25.556;2023-05-09T03:28:53;99534.78;;;15.26;81.82
11912;BME280;6016;41.928;25.556;2023-05-09T03:31:20;99526.81;;;15.26;81.13
11912;BME280;6016;41.928;25.556;2023-05-09T03:33:46;99541.63;;;15.37;81.24
11912;BME280;6016;41.928;25.556;2023-05-09T03:36:13;99446.88;;;14.84;81.56
11912;BME280;6016;41.928;25.556;2023-05-09T03:38:40;99490.69;;;15.07;81.06
11912;BME280;6016;41.928;25.556;2023-05-09T03:41:07;99411.53;;;14.57;80.60
11912;BME280;6016;41.928;25.556;2023-05-09T03:43:33;99513.06;;;15.04;80.86
11912;BME280;6016;41.928;25.556;2023-05-09T03:46:02;99548.63;;;15.46;80.52
11912;BME280;6016;41.928;25.556;2023-05-09T03:48:28;99553.31;;;15.52;80.07
11912;BME280;6016;41.928;25.556;2023-05-09T03:50:55;99560.09;;;15.46;79.47
11912;BME280;6016;41.928;25.556;2023-05-09T03:53:22;99514.13;;;15.19;79.36
11912;BME280;6016;41.928;25.556;2023-05-09T03:55:49;99563.47;;;15.57;79.87
11912;BME280;6016;41.928;25.556;2023-05-09T03:58:16;99560.41;;;15.43;79.84
11912;BME280;6016;41.928;25.556;2023-05-09T04:00:43;99566.25;;;15.47;79.80
11912;BME280;6016;41.928;25.556;2023-05-09T04:03:12;99403.56;;;14.49;80.00
11912;BME280;6016;41.928;25.556;2023-05-09T04:05:39;99563.06;;;15.43;80.58
11912;BME280;6016;41.928;25.556;2023-05-09T04:08:06;99574.28;;;15.55;80.03
11912;BME280;6016;41.928;25.556;2023-05-09T04:10:33;99529.41;;;15.17;80.07
11912;BME280;6016;41.928;25.556;2023-05-09T04:13:00;99367.41;;;14.21;80.72
11912;BME280;6016;41.928;25.556;2023-05-09T04:15:27;99577.41;;;15.51;80.67
11912;BME280;6016;41.928;25.556;2023-05-09T04:17:53;99574.56;;;15.44;80.22
11912;BME280;6016;41.928;25.556;2023-05-09T04:20:22;99357.06;;;14.10;79.98
11912;BME280;6016;41.928;25.556;2023-05-09T04:22:48;99506.44;;;15.08;80.73
11912;BME280;6016;41.928;25.556;2023-05-09T04:25:15;99503.03;;;14.89;80.15
11912;BME280;6016;41.928;25.556;2023-05-09T04:27:42;99572.28;;;15.57;80.32
11912;BME280;6016;41.928;25.556;2023-05-09T04:30:10;99533.59;;;15.28;80.23
11912;BME280;6016;41.928;25.556;2023-05-09T04:32:37;99579.78;;;15.62;79.92
11912;BME280;6016;41.928;25.556;2023-05-09T04:35:05;99341.28;;;14.09;79.14
11912;BME280;6016;41.928;25.556;2023-05-09T04:37:33;99392.94;;;14.49;79.83
11912;BME280;6016;41.928;25.556;2023-05-09T04:40:00;99569.31;;;15.26;80.38
11912;BME280;6016;41.928;25.556;2023-05-09T04:42:28;99590.56;;;15.60;80.28
11912;BME280;6016;41.928;25.556;2023-05-09T04:44:57;99589.72;;;15.60;79.85
11912;BME280;6016;41.928;25.556;2023-05-09T04:47:24;99590.06;;;15.57;80.37
11912;BME280;6016;41.928;25.556;2023-05-09T04:49:51;99586.25;;;15.59;79.85
11912;BME280;6016;41.928;25.556;2023-05-09T04:52:18;99451.09;;;14.69;80.08
11912;BME280;6016;41.928;25.556;2023-05-09T04:54:47;99595.22;;;15.58;80.71
11912;BME280;6016;41.928;25.556;2023-05-09T04:57:14;99353.72;;;14.08;80.04
11912;BME280;6016;41.928;25.556;2023-05-09T04:59:41;99586.06;;;15.53;80.04
11912;BME280;6016;41.928;25.556;2023-05-09T05:02:07;99563.22;;;15.42;80.01
11912;BME280;6016;41.928;25.556;2023-05-09T05:04:34;99592.56;;;15.58;79.77
11912;BME280;6016;41.928;25.556;2023-05-09T05:07:01;99566.41;;;15.45;80.07
11912;BME280;6016;41.928;25.556;2023-05-09T05:09:29;99543.59;;;15.35;81.03
11912;BME280;6016;41.928;25.556;2023-05-09T05:11:57;99595.88;;;15.60;81.10
11912;BME280;6016;41.928;25.556;2023-05-09T05:14:24;99598.03;;;15.57;80.95
11912;BME280;6016;41.928;25.556;2023-05-09T05:16:51;99594.91;;;15.61;80.43
11912;BME280;6016;41.928;25.556;2023-05-09T05:19:18;99579.41;;;15.57;79.85
11912;BME280;6016;41.928;25.556;2023-05-09T05:21:44;99603.91;;;15.77;79.46
11912;BME280;6016;41.928;25.556;2023-05-09T05:24:11;99597.75;;;15.68;79.44
11912;BME280;6016;41.928;25.556;2023-05-09T05:26:38;99590.31;;;15.80;79.66
11912;BME280;6016;41.928;25.556;2023-05-09T05:29:06;99600.16;;;15.88;79.66
11912;BME280;6016;41.928;25.556;2023-05-09T05:31:33;99503.69;;;15.26;79.17
11912;BME280;6016;41.928;25.556;2023-05-09T05:34:00;99590.88;;;15.92;79.72
11912;BME280;6016;41.928;25.556;2023-05-09T05:36:27;99591.06;;;15.99;79.23
11912;BME280;6016;41.928;25.556;2023-05-09T05:38:54;99588.72;;;15.96;78.57
11912;BME280;6016;41.928;25.556;2023-05-09T05:41:21;99579.84;;;15.79;78.39
11912;BME280;6016;41.928;25.556;2023-05-09T05:43:47;99590.72;;;15.94;78.23
11912;BME280;6016;41.928;25.556;2023-05-09T05:46:16;99568.53;;;15.85;78.02
11912;BME280;6016;41.928;25.556;2023-05-09T05:48:42;99600.22;;;16.05;77.35
11912;BME280;6016;41.928;25.556;2023-05-09T05:51:09;99544.56;;;15.68;77.94
11912;BME280;6016;41.928;25.556;2023-05-09T05:53:36;99599.41;;;16.12;78.55
11912;BME280;6016;41.928;25.556;2023-05-09T05:56:03;99605.34;;;15.98;78.56
11912;BME280;6016;41.928;25.556;2023-05-09T05:58:30;99606.78;;;15.84;79.17
11912;BME280;6016;41.928;25.556;2023-05-09T06:00:57;99497.19;;;15.21;78.21
11912;BME280;6016;41.928;25.556;2023-05-09T06:03:25;99552.63;;;15.50;77.99
11912;BME280;6016;41.928;25.556;2023-05-09T06:05:52;99551.81;;;15.50;78.08
11912;BME280;6016;41.928;25.556;2023-05-09T06:08:18;99614.16;;;15.90;77.77
11912;BME280;6016;41.928;25.556;2023-05-09T06:10:45;99597.44;;;15.80;78.28
11912;BME280;6016;41.928;25.556;2023-05-09T06:13:12;99608.16;;;15.96;77.92
11912;BME280;6016;41.928;25.556;2023-05-09T06:15:39;99611.81;;;15.95;77.36
11912;BME280;6016;41.928;25.556;2023-05-09T06:18:06;99517.97;;;15.17;78.29
11912;BME280;6016;41.928;25.556;2023-05-09T06:20:34;99594.13;;;15.78;78.03
11912;BME280;6016;41.928;25.556;2023-05-09T06:23:01;99607.34;;;15.96;78.15
11912;BME280;6016;41.928;25.556;2023-05-09T06:25:28;99568.16;;;15.71;78.41
11912;BME280;6016;41.928;25.556;2023-05-09T06:27:55;99604.50;;;15.97;78.37
11912;BME280;6016;41.928;25.556;2023-05-09T06:30:21;99613.41;;;15.80;80.49
11912;BME280;6016;41.928;25.556;2023-05-09T06:32:48;99604.03;;;16.02;78.42
11912;BME280;6016;41.928;25.556;2023-05-09T06:35:15;99605.53;;;16.05;77.90
11912;BME280;6016;41.928;25.556;2023-05-09T06:37:43;99601.59;;;16.25;77.49
11912;BME280;6016;41.928;25.556;2023-05-09T06:40:10;99463.91;;;15.43;76.70
11912;BME280;6016;41.928;25.556;2023-05-09T06:42:37;99523.31;;;15.85;76.55
11912;BME280;6016;41.928;25.556;2023-05-09T06:45:05;99515.31;;;15.77;76.27
11912;BME280;6016;41.928;25.556;2023-05-09T06:47:32;99612.09;;;16.43;76.15
11912;BME280;6016;41.928;25.556;2023-05-09T06:49:58;99612.56;;;16.47;76.58
11912;BME280;6016;41.928;25.556;2023-05-09T06:52:25;99614.41;;;16.55;76.16
11912;BME280;6016;41.928;25.556;2023-05-09T06:54:53;99584.13;;;16.39;75.18
11912;BME280;6016;41.928;25.556;2023-05-09T06:57:20;99546.16;;;16.12;75.52
11912;BME280;6016;41.928;25.556;2023-05-09T06:59:47;99597.94;;;16.43;75.24
11912;BME280;6016;41.928;25.556;2023-05-09T07:02:14;99597.78;;;16.61;74.86
11912;BME280;6016;41.928;25.556;2023-05-09T07:04:41;99610.09;;;16.62;74.93
11912;BME280;6016;41.928;25.556;2023-05-09T07:07:07;99570.97;;;16.46;75.21
11912;BME280;6016;41.928;25.556;2023-05-09T07:09:34;99560.97;;;16.15;75.52
11912;BME280;6016;41.928;25.556;2023-05-09T07:12:03;99598.25;;;16.31;75.38
11912;BME280;6016;41.928;25.556;2023-05-09T07:14:31;99607.25;;;16.72;75.13
11912;BME280;6016;41.928;25.556;2023-05-09T07:16:58;99564.16;;;16.35;75.52
11912;BME280;6016;41.928;25.556;2023-05-09T07:19:25;99604.75;;;16.54;75.67
11912;BME280;6016;41.928;25.556;2023-05-09T07:21:51;99621.56;;;16.71;74.74
11912;BME280;6016;41.928;25.556;2023-05-09T07:24:18;99616.59;;;16.68;74.94
11912;BME280;6016;41.928;25.556;2023-05-09T07:26:45;99618.25;;;16.69;74.12
11912;BME280;6016;41.928;25.556;2023-05-09T07:29:13;99606.25;;;16.48;74.16
11912;BME280;6016;41.928;25.556;2023-05-09T07:31:41;99593.59;;;16.34;74.24
11912;BME280;6016;41.928;25.556;2023-05-09T07:34:08;99622.41;;;16.47;74.76
11912;BME280;6016;41.928;25.556;2023-05-09T07:36:35;99622.88;;;16.34;75.18
11912;BME280;6016;41.928;25.556;2023-05-09T07:39:02;99621.72;;;16.36;75.44
11912;BME280;6016;41.928;25.556;2023-05-09T07:41:29;99627.34;;;16.16;76.45
11912;BME280;6016;41.928;25.556;2023-05-09T07:43:56;99628.81;;;16.11;76.27
11912;BME280;6016;41.928;25.556;2023-05-09T07:46:24;99631.00;;;16.07;76.36
11912;BME280;6016;41.928;25.556;2023-05-09T07:48:51;99630.81;;;16.09;76.56
11912;BME280;6016;41.928;25.556;2023-05-09T07:51:18;99632.78;;;15.98;76.18
11912;BME280;6016;41.928;25.556;2023-05-09T07:53:45;99633.47;;;16.09;76.42
11912;BME280;6016;41.928;25.556;2023-05-09T07:56:11;99630.66;;;16.10;76.45
11912;BME280;6016;41.928;25.556;2023-05-09T07:58:38;99569.44;;;15.59;75.77
11912;BME280;6016;41.928;25.556;2023-05-09T08:01:05;99635.63;;;16.05;76.03
11912;BME280;6016;41.928;25.556;2023-05-09T08:03:33;98988.91;;;12.05;75.25
11912;BME280;6016;41.928;25.556;2023-05-09T08:06:00;99575.38;;;15.44;76.68
11912;BME280;6016;41.928;25.556;2023-05-09T08:08:27;99635.03;;;15.85;76.96
11912;BME280;6016;41.928;25.556;2023-05-09T08:10:54;99640.88;;;15.80;76.56
11912;BME280;6016;41.928;25.556;2023-05-09T08:13:21;99649.19;;;15.85;76.56
11912;BME280;6016;41.928;25.556;2023-05-09T08:15:48;99653.28;;;15.71;76.70
11912;BME280;6016;41.928;25.556;2023-05-09T08:18:15;99652.84;;;15.84;76.02
11912;BME280;6016;41.928;25.556;2023-05-09T08:20:46;99583.63;;;15.33;74.88
11912;BME280;6016;41.928;25.556;2023-05-09T08:23:13;99652.16;;;15.82;76.12
11912;BME280;6016;41.928;25.556;2023-05-09T08:25:39;99645.97;;;15.73;75.79
11912;BME280;6016;41.928;25.556;2023-05-09T08:28:07;99651.25;;;15.65;75.98
11912;BME280;6016;41.928;25.556;2023-05-09T08:30:34;99600.16;;;15.18;77.33
11912;BME280;6016;41.928;25.556;2023-05-09T08:33:01;99640.75;;;15.55;78.28
11912;BME280;6016;41.928;25.556;2023-05-09T08:35:28;99625.63;;;15.56;77.76
11912;BME280;6016;41.928;25.556;2023-05-09T08:37:56;99640.53;;;15.83;76.68
11912;BME280;6016;41.928;25.556;2023-05-09T08:40:23;99643.22;;;15.92;76.81
11912;BME280;6016;41.928;25.556;2023-05-09T08:42:50;99642.72;;;15.88;75.87
11912;BME280;6016;41.928;25.556;2023-05-09T08:45:23;99649.03;;;15.87;76.12
11912;BME280;6016;41.928;25.556;2023-05-09T08:47:51;99585.53;;;15.49;76.71
11912;BME280;6016;41.928;25.556;2023-05-09T08:50:19;99641.72;;;15.89;76.29
11912;BME280;6016;41.928;25.556;2023-05-09T08:52:46;99537.25;;;15.27;76.07
11912;BME280;6016;41.928;25.556;2023-05-09T08:55:15;99652.31;;;15.81;75.25
11912;BME280;6016;41.928;25.556;2023-05-09T08:57:42;99566.28;;;15.21;75.86
11912;BME280;6016;41.928;25.556;2023-05-09T09:00:11;99602.25;;;15.68;76.13
11912;BME280;6016;41.928;25.556;2023-05-09T09:02:39;99646.28;;;16.05;75.80
11912;BME280;6016;41.928;25.556;2023-05-09T09:05:07;99644.97;;;16.09;75.20
11912;BME280;6016;41.928;25.556;2023-05-09T09:07:35;99642.47;;;15.99;76.12
11912;BME280;6016;41.928;25.556;2023-05-09T09:10:03;99644.31;;;16.07;75.78
11912;BME280;6016;41.928;25.556;2023-05-09T09:12:32;99641.59;;;15.99;75.25
11912;BME280;6016;41.928;25.556;2023-05-09T09:15:03;99584.28;;;15.70;74.60
11912;BME280;6016;41.928;25.556;2023-05-09T09:17:32;99634.00;;;16.12;74.23
11912;BME280;6016;41.928;25.556;2023-05-09T09:20:02;99635.00;;;16.11;74.72
11912;BME280;6016;41.928;25.556;2023-05-09T09:22:32;99630.50;;;16.20;75.00
11912;BME280;6016;41.928;25.556;2023-05-09T09:24:59;99629.84;;;16.18;73.99
11912;BME280;6016;41.928;25.556;2023-05-09T09:27:26;99638.28;;;16.05;74.15
11912;BME280;6016;41.928;25.556;2023-05-09T09:30:07;99645.66;;;16.20;74.99
11912;BME280;6016;41.928;25.556;2023-05-09T09:32:34;99605.69;;;15.95;72.88
11912;BME280;6016;41.928;25.556;2023-05-09T09:35:06;99635.56;;;16.40;72.95
11912;BME280;6016;41.928;25.556;2023-05-09T09:37:33;99460.34;;;15.26;73.01
11912;BME280;6016;41.928;25.556;2023-05-09T09:40:01;99639.22;;;16.47;73.23
11912;BME280;6016;41.928;25.556;2023-05-09T09:42:39;99585.09;;;16.13;73.62
11912;BME280;6016;41.928;25.556;2023-05-09T09:45:10;99633.31;;;16.10;73.61
11912;BME280;6016;41.928;25.556;2023-05-09T09:47:38;99562.03;;;15.79;73.91
11912;BME280;6016;41.928;25.556;2023-05-09T09:50:09;99636.69;;;16.21;72.85
11912;BME280;6016;41.928;25.556;2023-05-09T09:52:41;99634.00;;;16.12;73.56
11912;BME280;6016;41.928;25.556;2023-05-09T09:55:08;99616.16;;;15.96;73.41
11912;BME280;6016;41.928;25.556;2023-05-09T09:57:36;99631.28;;;15.96;73.49
11912;BME280;6016;41.928;25.556;2023-05-09T10:00:07;99594.47;;;15.83;73.58
11912;BME280;6016;41.928;25.556;2023-05-09T10:02:45;99630.66;;;16.10;72.95
11912;BME280;6016;41.928;25.556;2023-05-09T10:05:18;99531.03;;;15.53;74.03
11912;BME280;6016;41.928;25.556;2023-05-09T10:07:44;99580.81;;;15.78;72.67
11912;BME280;6016;41.928;25.556;2023-05-09T10:10:11;99664.31;;;16.20;74.34
11912;BME280;6016;41.928;25.556;2023-05-09T10:12:39;99641.16;;;16.12;74.81
11912;BME280;6016;41.928;25.556;2023-05-09T10:15:09;99510.84;;;15.26;75.08
11912;BME280;6016;41.928;25.556;2023-05-09T10:17:39;99643.63;;;16.13;74.02
11912;BME280;6016;41.928;25.556;2023-05-09T10:20:07;99653.81;;;16.18;73.75
11912;BME280;6016;41.928;25.556;2023-05-09T10:22:35;99575.03;;;15.82;73.37
11912;BME280;6016;41.928;25.556;2023-05-09T10:25:07;99636.66;;;16.12;74.06
11912;BME280;6016;41.928;25.556;2023-05-09T10:27:37;99635.03;;;16.20;73.82
11912;BME280;6016;41.928;25.556;2023-05-09T10:30:06;99632.38;;;16.20;73.40
11912;BME280;6016;41.928;25.556;2023-05-09T10:32:44;99613.03;;;16.09;73.86
11912;BME280;6016;41.928;25.556;2023-05-09T10:35:15;99627.06;;;16.36;73.33
11912;BME280;6016;41.928;25.556;2023-05-09T10:37:42;99629.91;;;16.43;73.12
11912;BME280;6016;41.928;25.556;2023-05-09T10:40:11;99592.09;;;16.06;73.47
11912;BME280;6016;41.928;25.556;2023-05-09T10:42:41;99507.00;;;15.71;71.34
11912;BME280;6016;41.928;25.556;2023-05-09T10:45:09;99598.56;;;16.03;72.81
11912;BME280;6016;41.928;25.556;2023-05-09T10:47:38;99631.22;;;16.39;72.97
11912;BME280;6016;41.928;25.556;2023-05-09T10:50:07;99613.72;;;16.28;73.88
11912;BME280;6016;41.928;25.556;2023-05-09T10:53:03;99625.59;;;16.67;72.14
11912;BME280;6016;41.928;25.556;2023-05-09T10:55:35;99564.50;;;16.32;71.56
11912;BME280;6016;41.928;25.556;2023-05-09T10:58:17;99629.25;;;16.82;71.82
11912;BME280;6016;41.928;25.556;2023-05-09T11:00:45;99568.47;;;16.53;71.17
11912;BME280;6016;41.928;25.556;2023-05-09T11:03:14;99643.06;;;17.11;69.99
11912;BME280;6016;41.928;25.556;2023-05-09T11:05:42;99581.78;;;16.78;68.34
11912;BME280;6016;41.928;25.556;2023-05-09T11:08:20;99636.22;;;17.17;69.73
11912;BME280;6016;41.928;25.556;2023-05-09T11:10:48;99619.59;;;16.90;68.11
11912;BME280;6016;41.928;25.556;2023-05-09T11:13:17;99611.09;;;16.78;69.13
11912;BME280;6016;41.928;25.556;2023-05-09T11:16:03;99639.06;;;16.82;70.60
11912;BME280;6016;41.928;25.556;2023-05-09T11:18:32;99638.09;;;16.99;70.16
11912;BME280;6016;41.928;25.556;2023-05-09T11:21:06;99596.94;;;16.77;69.86
11912;BME280;6016;41.928;25.556;2023-05-09T11:23:34;99648.25;;;17.04;70.40
11912;BME280;6016;41.928;25.556;2023-05-09T11:26:04;99590.97;;;16.75;70.29
11912;BME280;6016;41.928;25.556;2023-05-09T11:28:33;99643.53;;;16.98;70.12
11912;BME280;6016;41.928;25.556;2023-05-09T11:31:10;99629.75;;;16.86;70.49
11912;BME280;6016;41.928;25.556;2023-05-09T11:33:40;99634.91;;;16.63;70.43
11912;BME280;6016;41.928;25.556;2023-05-09T11:36:15;99541.66;;;16.05;70.50
11912;BME280;6016;41.928;25.556;2023-05-09T11:38:43;99625.25;;;16.53;71.11
11912;BME280;6016;41.928;25.556;2023-05-09T11:41:10;99600.06;;;16.14;71.12
11912;BME280;6016;41.928;25.556;2023-05-09T11:43:38;99623.25;;;16.55;70.99
11912;BME280;6016;41.928;25.556;2023-05-09T11:46:05;99626.06;;;16.54;70.13
11912;BME280;6016;41.928;25.556;2023-05-09T11:48:37;99610.44;;;16.51;71.41
11912;BME280;6016;41.928;25.556;2023-05-09T11:51:05;99623.09;;;16.73;70.95
11912;BME280;6016;41.928;25.556;2023-05-09T11:53:32;99620.09;;;16.77;70.01
11912;BME280;6016;41.928;25.556;2023-05-09T11:56:03;99091.69;;;13.42;70.12
11912;BME280;6016;41.928;25.556;2023-05-09T11:58:30;99594.13;;;16.62;71.57
11912;BME280;6016;41.928;25.556;2023-05-09T12:00:57;99617.94;;;16.88;70.74
11912;BME280;6016;41.928;25.556;2023-05-09T12:03:24;99612.59;;;16.88;70.50
11912;BME280;6016;41.928;25.556;2023-05-09T12:05:53;99395.13;;;15.48;69.94
11912;BME280;6016;41.928;25.556;2023-05-09T12:08:23;99624.41;;;16.86;69.50
11912;BME280;6016;41.928;25.556;2023-05-09T12:10:50;99605.75;;;16.86;69.76
11912;BME280;6016;41.928;25.556;2023-05-09T12:13:17;99604.25;;;16.92;69.08
11912;BME280;6016;41.928;25.556;2023-05-09T12:15:44;99491.94;;;16.22;68.29
11912;BME280;6016;41.928;25.556;2023-05-09T12:18:11;99599.75;;;16.92;69.64
11912;BME280;6016;41.928;25.556;2023-05-09T12:20:42;99603.75;;;16.88;68.10
11912;BME280;6016;41.928;25.556;2023-05-09T12:23:09;99602.44;;;16.84;67.88
11912;BME280;6016;41.928;25.556;2023-05-09T12:25:38;99520.91;;;16.33;67.98
11912;BME280;6016;41.928;25.556;2023-05-09T12:28:05;99525.03;;;16.44;68.61
11912;BME280;6016;41.928;25.556;2023-05-09T12:30:32;99598.59;;;16.78;67.94
11912;BME280;6016;41.928;25.556;2023-05-09T12:32:59;99578.97;;;16.79;67.74
11912;BME280;6016;41.928;25.556;2023-05-09T12:35:28;99584.78;;;16.74;67.83
11912;BME280;6016;41.928;25.556;2023-05-09T12:37:55;99561.66;;;16.58;68.19
11912;BME280;6016;41.928;25.556;2023-05-09T12:40:23;99578.97;;;16.79;68.30
11912;BME280;6016;41.928;25.556;2023-05-09T12:42:52;99576.09;;;16.81;68.36
11912;BME280;6016;41.928;25.556;2023-05-09T12:45:24;99576.59;;;16.84;68.26
11912;BME280;6016;41.928;25.556;2023-05-09T12:47:52;99571.47;;;16.66;68.90
11912;BME280;6016;41.928;25.556;2023-05-09T12:50:18;99568.63;;;16.84;69.51
11912;BME280;6016;41.928;25.556;2023-05-09T12:52:50;99569.81;;;16.82;69.10
11912;BME280;6016;41.928;25.556;2023-05-09T12:55:18;99567.16;;;16.73;70.55
11912;BME280;6016;41.928;25.556;2023-05-09T12:57:58;99530.50;;;16.67;68.68
11912;BME280;6016;41.928;25.556;2023-05-09T13:00:25;99565.28;;;16.91;67.75
11912;BME280;6016;41.928;25.556;2023-05-09T13:02:52;99527.88;;;16.51;70.89
11912;BME280;6016;41.928;25.556;2023-05-09T13:05:20;99545.81;;;16.73;68.39